createdAt,value
2022-08-20T00:02:13.244Z,71.88
2022-08-20T00:05:02.695Z,71.11
2022-08-20T00:07:52.736Z,71.04
2022-08-20T00:10:43.977Z,70.51
2022-08-20T00:13:41.844Z,70.68
2022-08-20T00:16:36.054Z,70.57
2022-08-20T00:19:28.600Z,70.45
2022-08-20T00:22:18.306Z,70.01
2022-08-20T00:25:09.663Z,70.05
2022-08-20T00:28:00.288Z,69.67
2022-08-20T00:30:50.189Z,69.66
2022-08-20T00:33:42.146Z,69.77
2022-08-20T00:36:32.330Z,68.92
2022-08-20T00:39:22.488Z,69.24
2022-08-20T00:42:12.736Z,69.16
2022-08-20T00:45:02.884Z,68.79
2022-08-20T00:47:52.665Z,68.50
2022-08-20T00:50:42.565Z,68.59
2022-08-20T00:53:33.105Z,68.25
2022-08-20T00:56:22.947Z,67.13
2022-08-20T00:59:17.850Z,67.46
2022-08-20T01:02:11.919Z,66.44
2022-08-20T01:05:00.993Z,64.92
2022-08-20T01:07:50.657Z,65.82
2022-08-20T01:10:47.078Z,65.22
2022-08-20T01:13:41.555Z,64.81
2022-08-20T01:16:33.071Z,65.04
2022-08-20T01:19:31.415Z,65.03
2022-08-20T01:23:14.487Z,65.47
2022-08-20T01:26:29.456Z,65.87
2022-08-20T01:29:26.134Z,66.08
2022-08-20T01:32:15.465Z,65.76
2022-08-20T01:35:06.975Z,65.42
2022-08-20T01:37:56.683Z,65.37
2022-08-20T01:41:28.902Z,65.10
2022-08-20T01:44:19.729Z,64.82
2022-08-20T01:47:22.563Z,65.35
2022-08-20T01:50:20.048Z,65.21
2022-08-20T01:53:31.628Z,65.18
2022-08-20T01:56:27.128Z,64.87
2022-08-20T01:59:17.758Z,65.40
2022-08-20T02:02:08.412Z,65.53
2022-08-20T02:05:02.206Z,64.87
2022-08-20T02:07:52.009Z,64.49
2022-08-20T02:10:42.229Z,64.79
2022-08-20T02:13:32.194Z,64.91
2022-08-20T02:16:30.677Z,65.10
2022-08-20T02:19:36.026Z,64.87
2022-08-20T02:22:50.163Z,64.12
2022-08-20T02:25:41.976Z,64.41
2022-08-20T02:28:31.544Z,63.87
2022-08-20T02:31:22.576Z,64.22
2022-08-20T02:34:22.414Z,64.90
2022-08-20T02:37:17.731Z,64.89
2022-08-20T02:40:09.486Z,64.80
2022-08-20T02:43:00.938Z,65.16
2022-08-20T02:45:50.906Z,65.28
2022-08-20T02:48:41.758Z,65.55
2022-08-20T02:51:31.891Z,65.55
2022-08-20T02:54:21.626Z,65.69
2022-08-20T02:57:16.135Z,65.41
2022-08-20T03:00:13.341Z,65.21
2022-08-20T03:03:03.842Z,64.91
2022-08-20T03:05:55.941Z,65.43
2022-08-20T03:08:46.702Z,65.54
2022-08-20T03:11:38.400Z,65.61
2022-08-20T03:14:29.850Z,65.31
2022-08-20T03:17:22.115Z,65.75
2022-08-20T03:20:12.670Z,65.08
2022-08-20T03:23:02.757Z,64.97
2022-08-20T03:25:52.565Z,64.66
2022-08-20T03:28:43.021Z,64.77
2022-08-20T03:31:32.464Z,64.25
2022-08-20T03:34:22.435Z,64.02
2022-08-20T03:37:13.035Z,63.86
2022-08-20T03:40:03.955Z,64.04
2022-08-20T03:42:54.137Z,63.14
2022-08-20T03:45:46.106Z,63.07
2022-08-20T03:48:37.173Z,62.68
2022-08-20T03:51:27.366Z,62.73
2022-08-20T03:54:17.106Z,62.87
2022-08-20T03:57:12.474Z,63.18
2022-08-20T04:00:03.507Z,62.84
2022-08-20T04:03:02.140Z,63.18
2022-08-20T04:05:53.244Z,62.65
2022-08-20T04:08:43.811Z,62.97
2022-08-20T04:11:34.855Z,62.85
2022-08-20T04:14:25.008Z,62.66
2022-08-20T04:17:20.877Z,62.41
2022-08-20T04:20:14.857Z,61.96
2022-08-20T04:23:05.494Z,61.63
2022-08-20T04:25:56.478Z,61.43
2022-08-20T04:28:47.196Z,61.11
2022-08-20T04:31:36.941Z,60.89
2022-08-20T04:34:27.581Z,60.70
2022-08-20T04:37:20.516Z,61.18
2022-08-20T04:40:32.729Z,61.51
2022-08-20T04:43:25.829Z,61.32
2022-08-20T04:46:15.985Z,61.49
2022-08-20T04:49:08.155Z,61.42
2022-08-20T04:51:58.108Z,61.81
2022-08-20T04:54:49.013Z,61.79
2022-08-20T04:57:39.869Z,62.03
2022-08-20T05:00:30.346Z,62.00
2022-08-20T05:03:21.062Z,61.95
2022-08-20T05:06:12.664Z,62.21
2022-08-20T05:09:03.300Z,62.37
2022-08-20T05:11:52.688Z,62.73
2022-08-20T05:14:42.151Z,62.90
2022-08-20T05:17:32.045Z,62.75
2022-08-20T05:20:22.059Z,62.86
2022-08-20T05:23:13.975Z,63.15
2022-08-20T05:26:08.849Z,63.52
2022-08-20T05:28:59.475Z,62.44
2022-08-20T05:31:49.866Z,61.01
2022-08-20T05:34:39.981Z,61.93
2022-08-20T05:37:32.863Z,62.62
2022-08-20T05:40:24.331Z,63.15
2022-08-20T05:43:15.214Z,63.15
2022-08-20T05:46:04.326Z,63.23
2022-08-20T05:48:54.578Z,63.49
2022-08-20T05:51:44.637Z,64.33
2022-08-20T05:54:35.434Z,64.29
2022-08-20T05:57:26.032Z,65.08
2022-08-20T06:00:16.860Z,65.10
2022-08-20T06:03:25.942Z,65.69
2022-08-20T06:06:32.208Z,65.63
2022-08-20T06:09:27.982Z,65.76
2022-08-20T06:12:24.452Z,66.56
2022-08-20T06:15:14.598Z,67.42
2022-08-20T06:18:27.999Z,66.50
2022-08-20T06:21:19.222Z,67.52
2022-08-20T06:24:11.109Z,67.80
2022-08-20T06:27:03.160Z,69.51
2022-08-20T06:29:52.930Z,70.29
2022-08-20T06:32:42.596Z,71.13
2022-08-20T06:35:32.223Z,71.77
2022-08-20T06:38:22.969Z,71.61
2022-08-20T06:41:12.507Z,70.58
2022-08-20T06:44:05.983Z,70.81
2022-08-20T06:46:57.650Z,70.18
2022-08-20T06:49:48.942Z,70.69
2022-08-20T06:52:52.730Z,70.76
2022-08-20T06:55:48.102Z,70.84
2022-08-20T06:58:39.146Z,71.08
2022-08-20T07:01:28.697Z,70.80
2022-08-20T07:04:18.392Z,70.77
2022-08-20T07:07:08.641Z,70.47
2022-08-20T07:10:07.668Z,70.29
2022-08-20T07:12:58.368Z,69.43
2022-08-20T07:15:48.117Z,68.91
2022-08-20T07:18:42.851Z,67.87
2022-08-20T07:21:32.112Z,67.02
2022-08-20T07:24:22.311Z,67.30
2022-08-20T07:27:12.277Z,67.35
2022-08-20T07:30:20.235Z,67.16
2022-08-20T07:33:12.643Z,67.66
2022-08-20T07:36:05.641Z,67.33
2022-08-20T07:38:56.970Z,67.05
2022-08-20T07:42:04.189Z,67.15
2022-08-20T07:44:54.207Z,67.31
2022-08-20T07:47:45.500Z,67.37
2022-08-20T07:50:37.891Z,67.39
2022-08-20T07:53:32.292Z,67.27
2022-08-20T07:56:25.998Z,68.02
2022-08-20T07:59:20.103Z,68.31
2022-08-20T08:02:09.786Z,68.13
2022-08-20T08:05:01.011Z,68.81
2022-08-20T08:07:50.979Z,69.39
2022-08-20T08:10:43.377Z,69.27
2022-08-20T08:13:48.948Z,68.58
2022-08-20T08:16:39.416Z,68.66
2022-08-20T08:19:37.615Z,68.71
2022-08-20T08:22:27.472Z,69.57
2022-08-20T08:25:18.479Z,68.74
2022-08-20T08:28:08.155Z,68.92
2022-08-20T08:31:01.079Z,68.87
2022-08-20T08:33:51.534Z,69.34
2022-08-20T08:36:41.905Z,68.66
2022-08-20T08:39:35.130Z,68.12
2022-08-20T08:42:33.853Z,68.05
2022-08-20T08:45:23.790Z,68.23
2022-08-20T08:48:18.404Z,67.69
2022-08-20T08:51:14.046Z,66.81
2022-08-20T08:54:06.964Z,65.87
2022-08-20T08:56:57.818Z,64.79
2022-08-20T09:00:04.433Z,65.46
2022-08-20T09:03:03.515Z,65.86
2022-08-20T09:06:01.179Z,65.58
2022-08-20T09:08:54.599Z,65.44
2022-08-20T09:11:54.463Z,65.93
2022-08-20T09:14:43.854Z,65.99
2022-08-20T09:17:32.958Z,65.42
2022-08-20T09:20:26.910Z,65.09
2022-08-20T09:23:16.985Z,65.00
2022-08-20T09:26:07.641Z,64.89
2022-08-20T09:28:58.121Z,64.65
2022-08-20T09:31:49.195Z,64.49
2022-08-20T09:34:45.808Z,64.50
2022-08-20T09:37:37.693Z,64.01
2022-08-20T09:40:28.378Z,64.38
2022-08-20T09:43:18.051Z,64.20
2022-08-20T09:46:08.131Z,63.39
2022-08-20T09:48:59.265Z,63.12
2022-08-20T09:51:49.160Z,63.50
2022-08-20T09:54:39.937Z,63.70
2022-08-20T09:57:37.330Z,63.45
2022-08-20T10:00:27.838Z,63.03
2022-08-20T10:03:18.280Z,62.83
2022-08-20T10:06:08.733Z,62.76
2022-08-20T10:08:58.406Z,62.79
2022-08-20T10:11:48.149Z,62.11
2022-08-20T10:14:37.894Z,62.50
2022-08-20T10:17:27.483Z,62.34
2022-08-20T10:20:19.743Z,62.24
2022-08-20T10:23:09.353Z,63.00
2022-08-20T10:26:01.778Z,63.85
2022-08-20T10:28:51.316Z,64.06
2022-08-20T10:31:41.570Z,64.31
2022-08-20T10:34:31.067Z,64.44
2022-08-20T10:37:23.467Z,64.44
2022-08-20T10:40:16.805Z,65.00
2022-08-20T10:43:06.499Z,64.81
2022-08-20T10:45:56.862Z,64.74
2022-08-20T10:48:46.963Z,64.87
2022-08-20T10:51:36.510Z,64.85
2022-08-20T10:54:26.635Z,64.82
2022-08-20T10:57:23.116Z,65.46
2022-08-20T11:00:15.959Z,64.83
2022-08-20T11:03:05.933Z,64.70
2022-08-20T11:05:55.844Z,64.23
2022-08-20T11:08:45.986Z,63.86
2022-08-20T11:11:35.917Z,64.05
2022-08-20T11:14:25.935Z,64.59
2022-08-20T11:17:20.611Z,64.51
2022-08-20T11:20:12.500Z,64.27
2022-08-20T11:23:03.657Z,65.08
2022-08-20T11:25:53.804Z,64.94
2022-08-20T11:28:44.343Z,64.96
2022-08-20T11:31:34.122Z,65.26
2022-08-20T11:34:23.612Z,65.89
2022-08-20T11:37:15.487Z,66.54
2022-08-20T11:40:06.584Z,66.87
2022-08-20T11:46:07.194Z,68.06
2022-08-20T11:48:57.870Z,68.29
2022-08-20T11:51:49.220Z,69.13
2022-08-20T11:54:41.939Z,69.67
2022-08-20T11:57:34.219Z,69.64
2022-08-20T12:00:32.172Z,69.59
2022-08-20T12:03:23.077Z,70.17
2022-08-20T12:06:12.958Z,70.47
2022-08-20T12:09:03.679Z,70.74
2022-08-20T12:11:52.828Z,71.61
2022-08-20T12:14:43.474Z,72.10
2022-08-20T12:17:34.182Z,72.79
2022-08-20T12:20:25.881Z,72.93
2022-08-20T12:23:16.428Z,73.27
2022-08-20T12:26:06.048Z,73.77
2022-08-20T12:28:58.472Z,73.03
2022-08-20T12:31:48.072Z,74.25
2022-08-20T12:34:42.162Z,74.60
2022-08-20T12:37:32.954Z,74.65
2022-08-20T12:40:31.788Z,74.97
2022-08-20T12:43:25.028Z,74.85
2022-08-20T12:46:15.086Z,74.72
2022-08-20T12:49:05.719Z,74.44
2022-08-20T12:51:56.636Z,74.52
2022-08-20T12:54:47.003Z,74.41
2022-08-20T12:57:40.263Z,74.48
2022-08-20T13:00:43.095Z,73.65
2022-08-20T13:03:33.095Z,72.99
2022-08-20T13:06:32.405Z,72.63
2022-08-20T13:09:22.368Z,72.36
2022-08-20T13:12:14.969Z,71.74
2022-08-20T13:15:04.491Z,71.74
2022-08-20T13:17:56.820Z,71.29
2022-08-20T13:20:46.769Z,71.48
2022-08-20T13:23:39.994Z,71.46
2022-08-20T13:26:29.725Z,72.06
2022-08-20T13:29:20.778Z,71.54
2022-08-20T13:32:11.999Z,71.66
2022-08-20T13:35:02.321Z,72.56
2022-08-20T13:37:52.432Z,72.85
2022-08-20T13:40:42.391Z,73.12
2022-08-20T13:43:32.636Z,72.55
2022-08-20T13:46:23.600Z,72.82
2022-08-20T13:49:13.851Z,71.91
2022-08-20T13:52:04.853Z,71.39
2022-08-20T13:54:55.073Z,71.58
2022-08-20T13:57:45.475Z,71.66
2022-08-20T14:00:36.179Z,71.88
2022-08-20T14:03:26.089Z,71.67
2022-08-20T14:06:17.367Z,71.74
2022-08-20T14:09:07.496Z,72.25
2022-08-20T14:11:56.537Z,72.37
2022-08-20T14:14:46.718Z,72.76
2022-08-20T14:17:42.004Z,72.98
2022-08-20T14:20:33.642Z,72.92
2022-08-20T14:23:23.641Z,73.37
2022-08-20T14:26:13.672Z,73.53
2022-08-20T14:29:04.623Z,72.68
2022-08-20T14:31:57.641Z,71.71
2022-08-20T14:34:47.399Z,70.28
2022-08-20T14:37:59.071Z,69.73
2022-08-20T14:40:51.517Z,69.09
2022-08-20T14:43:40.761Z,68.08
2022-08-20T14:46:30.274Z,68.03
2022-08-20T14:49:20.606Z,67.79
2022-08-20T14:52:10.962Z,66.95
2022-08-20T14:55:02.686Z,66.45
2022-08-20T14:57:53.149Z,66.51
2022-08-20T15:00:43.356Z,66.36
2022-08-20T15:03:33.251Z,65.51
2022-08-20T15:06:23.491Z,66.15
2022-08-20T15:09:15.148Z,65.69
2022-08-20T15:12:05.546Z,65.44
2022-08-20T15:14:54.899Z,65.27
2022-08-20T15:17:54.969Z,65.58
2022-08-20T15:20:44.841Z,65.59
2022-08-20T15:23:34.493Z,65.67
2022-08-20T15:26:24.039Z,65.33
2022-08-20T15:29:18.397Z,65.72
2022-08-20T15:32:13.337Z,65.79
2022-08-20T15:35:02.936Z,65.82
2022-08-20T15:37:54.702Z,65.52
2022-08-20T15:40:44.382Z,65.77
2022-08-20T15:43:34.468Z,65.26
2022-08-20T15:46:27.769Z,65.24
2022-08-20T15:49:20.173Z,65.53
2022-08-20T15:52:09.920Z,65.46
2022-08-20T15:54:59.603Z,64.96
2022-08-20T15:58:17.890Z,65.36
2022-08-20T16:01:33.716Z,65.23
2022-08-20T16:05:00.528Z,64.85
2022-08-20T16:08:05.357Z,65.02
2022-08-20T16:11:06.457Z,64.96
2022-08-20T16:14:15.620Z,65.22
2022-08-20T16:17:15.987Z,64.91
2022-08-20T16:20:15.781Z,65.69
2022-08-20T16:23:05.936Z,65.84
2022-08-20T16:26:01.208Z,65.38
2022-08-20T16:29:13.780Z,65.92
2022-08-20T16:32:30.018Z,66.22
2022-08-20T16:35:29.584Z,66.24
2022-08-20T16:38:43.036Z,66.49
2022-08-20T16:41:41.684Z,66.60
2022-08-20T16:44:49.285Z,67.08
2022-08-20T16:47:42.073Z,66.65
2022-08-20T16:50:33.697Z,67.01
2022-08-20T16:53:25.082Z,67.08
2022-08-20T16:56:14.743Z,66.96
2022-08-20T16:59:07.721Z,66.86
2022-08-20T17:02:10.857Z,67.59
2022-08-20T17:05:06.543Z,67.58
2022-08-20T17:08:08.434Z,67.90
2022-08-20T17:11:02.631Z,67.71
2022-08-20T17:13:55.235Z,67.71
2022-08-20T17:16:51.293Z,67.48
2022-08-20T17:19:40.596Z,67.94
2022-08-20T17:22:32.455Z,67.85
2022-08-20T17:25:32.588Z,67.58
2022-08-20T17:28:31.998Z,67.42
2022-08-20T17:31:43.415Z,67.86
2022-08-20T17:34:45.733Z,67.40
2022-08-20T17:37:40.701Z,67.67
2022-08-20T17:40:41.417Z,67.52
2022-08-20T17:43:33.795Z,67.84
2022-08-20T17:46:24.161Z,67.75
2022-08-20T17:49:19.817Z,67.82
2022-08-20T17:52:18.717Z,68.45
2022-08-20T17:55:09.577Z,68.25
2022-08-20T17:58:02.243Z,68.24
2022-08-20T18:00:51.644Z,67.98
2022-08-20T18:03:41.744Z,68.26
2022-08-20T18:06:40.913Z,67.91
2022-08-20T18:10:03.730Z,67.99
2022-08-20T18:13:05.348Z,68.18
2022-08-20T18:16:00.002Z,68.92
2022-08-20T18:18:56.927Z,69.03
2022-08-20T18:22:05.897Z,68.93
2022-08-20T18:24:59.224Z,68.90
2022-08-20T18:27:50.731Z,68.93
2022-08-20T18:30:50.737Z,69.00
2022-08-20T18:33:45.262Z,68.90
2022-08-20T18:36:36.315Z,68.95
2022-08-20T18:39:31.171Z,69.23
2022-08-20T18:42:39.713Z,68.94
2022-08-20T18:45:38.247Z,69.18
2022-08-20T18:48:27.792Z,68.97
2022-08-20T18:51:17.625Z,69.54
2022-08-20T18:54:08.108Z,69.19
2022-08-20T18:57:06.525Z,69.29
2022-08-20T19:00:12.962Z,69.52
2022-08-20T19:03:35.924Z,69.42
2022-08-20T19:06:35.466Z,69.92
2022-08-20T19:09:37.540Z,69.61
2022-08-20T19:13:18.904Z,69.59
2022-08-20T19:16:12.212Z,69.77
2022-08-20T19:19:02.102Z,69.62
2022-08-20T19:21:53.210Z,70.02
2022-08-20T19:24:45.723Z,70.36
2022-08-20T19:27:35.299Z,70.32
2022-08-20T19:30:39.697Z,70.27
2022-08-20T19:33:32.752Z,70.63
2022-08-20T19:36:35.010Z,70.30
2022-08-20T19:39:25.823Z,70.69
2022-08-20T19:42:29.729Z,70.64
2022-08-20T19:45:39.285Z,71.10
2022-08-20T19:48:50.047Z,70.94
2022-08-20T19:51:58.040Z,70.46
2022-08-20T19:55:03.347Z,70.41
2022-08-20T19:57:56.554Z,71.12
2022-08-20T20:00:50.152Z,71.17
2022-08-20T20:03:40.103Z,71.21
2022-08-20T20:06:31.624Z,70.81
2022-08-20T20:09:28.465Z,70.95
2022-08-20T20:12:22.807Z,71.21
2022-08-20T20:15:12.985Z,71.48
2022-08-20T20:18:02.460Z,71.28
2022-08-20T20:20:58.404Z,71.35
2022-08-20T20:23:59.068Z,71.28
2022-08-20T20:26:50.127Z,70.94
2022-08-20T20:29:39.719Z,70.91
2022-08-20T20:32:30.168Z,71.70
2022-08-20T20:35:36.428Z,71.68
2022-08-20T20:38:28.881Z,71.53
2022-08-20T20:41:27.028Z,71.94
2022-08-20T20:44:23.905Z,72.45
2022-08-20T20:47:35.905Z,72.26
2022-08-20T20:50:35.960Z,72.27
2022-08-20T20:53:51.196Z,72.55
2022-08-20T20:56:44.738Z,72.19
2022-08-20T20:59:37.372Z,72.43
2022-08-20T21:02:26.689Z,72.39
2022-08-20T21:05:17.893Z,72.50
2022-08-20T21:08:10.510Z,72.81
2022-08-20T21:11:00.353Z,72.70
2022-08-20T21:13:50.123Z,72.86
2022-08-20T21:16:39.858Z,73.14
2022-08-20T21:19:30.302Z,73.19
2022-08-20T21:22:22.729Z,72.97
2022-08-20T21:25:12.661Z,73.50
2022-08-20T21:28:03.018Z,73.11
2022-08-20T21:30:58.417Z,73.08
2022-08-20T21:33:48.223Z,73.18
2022-08-20T21:36:37.481Z,73.30
2022-08-20T21:39:27.429Z,73.45
2022-08-20T21:42:28.956Z,73.10
2022-08-20T21:45:20.004Z,73.58
2022-08-20T21:48:09.235Z,73.36
2022-08-20T21:50:58.878Z,73.15
2022-08-20T21:53:48.459Z,73.13
2022-08-20T21:56:39.036Z,73.11
2022-08-20T21:59:28.479Z,73.10
2022-08-20T22:02:19.439Z,73.10
2022-08-20T22:05:09.191Z,73.03
2022-08-20T22:07:58.839Z,73.44
2022-08-20T22:10:48.879Z,73.09
2022-08-20T22:13:39.632Z,73.33
2022-08-20T22:16:29.223Z,73.55
2022-08-20T22:19:18.975Z,73.32
2022-08-20T22:22:12.045Z,73.55
2022-08-20T22:25:05.115Z,73.47
2022-08-20T22:27:59.869Z,73.66
2022-08-20T22:30:49.723Z,73.52
2022-08-20T22:33:40.563Z,73.39
2022-08-20T22:36:31.414Z,73.39
2022-08-20T22:39:23.522Z,73.38
2022-08-20T22:42:16.333Z,73.37
2022-08-20T22:45:14.541Z,73.59
2022-08-20T22:48:05.169Z,73.17
2022-08-20T22:50:55.613Z,72.83
2022-08-20T22:53:46.840Z,72.93
2022-08-20T22:56:36.261Z,73.11
2022-08-20T22:59:26.506Z,73.26
2022-08-20T23:02:20.349Z,72.99
2022-08-20T23:05:14.471Z,73.36
2022-08-20T23:08:04.500Z,73.39
2022-08-20T23:10:54.304Z,73.01
2022-08-20T23:13:44.256Z,73.30
2022-08-20T23:16:34.710Z,73.56
2022-08-20T23:19:25.084Z,73.20
2022-08-20T23:22:15.028Z,73.37
2022-08-20T23:25:07.218Z,73.40
2022-08-20T23:28:04.227Z,74.10
2022-08-20T23:30:54.567Z,73.93
2022-08-20T23:33:44.945Z,73.57
2022-08-20T23:36:35.393Z,73.18
2022-08-20T23:39:26.012Z,73.66
2022-08-20T23:42:16.442Z,73.57
2022-08-20T23:45:07.297Z,72.68
2022-08-20T23:47:57.160Z,72.49
2022-08-20T23:50:46.736Z,72.41
2022-08-20T23:53:39.197Z,72.69
2022-08-20T23:56:28.664Z,72.63
2022-08-20T23:59:17.775Z,72.60
